Hermanos Serdan International Airport
MMPB : now visible

Airfield :











YOU CAN JOIN US ON...

 
LOGIN :

Register | Disclaimer

   EN    FR    IT 

 









Legend :    VFR   Marginal VFR   IFR   Intensive IFR   Very Intensive IFR
Visi :
Ceiling :
>= 8 km
>= 3000ft
5 to 8 km
1000 to 3000 ft
1500m to 5 km
500 to 1000 ft
800 to 1500m
200 to 500 ft
< 800m
< 200 ft
Symbols :   Thunderstorms  Fog  Heavy snow  Heavy precipitations  Wind > 20 kt






- Airport Elevation : 7361 ft
- IATA code : PBC


MMPB - Hermanos Serdan International

CURRENT METAR :
  • 192143Z 24007KT 9SM SCT020 BKN090 BKN230 18/13 A3032 RMK 8/463 HZY

EXPIRED METARs :
  • 192043Z 27008KT 9SM SCT020CB BKN090 OVC220 16/13 A3034 RMK 8/963 HZY PCPN SW RAE25 BINOVC
  • 191946Z 24007KT 6SM -RA BKN010CB OVC090 16/14 A3037 RMK 8/96/ RAE40 -RAB45 LTGIC RWY WET
  • 191900Z 06015KT 6SM RA OVC010CB 17/14 A3038 RMK 8/9// RAB59
  • 191816Z 22003KT 8SM BKN010 20/12 A3039 RMK 8/100 HZY
  • 191741Z 13007KT 9SM BKN015 22/11 A3040 RMK 8/100 HZY

TAF AMD TAF MMPB
Valid from the 19 at 20:00 until the 20 at 18:00 UTC


191951Z 1920/2018 24010KT 6SM RA BKN010CB
TEMPO 1920/2000 2SM TSRA OVC010CB
FM200200 36005KT P6SM BKN020 BKN100
TEMPO 2011/2015 4SM HZ BKN010
MMFR FIR / North America



MET'MAP, your aeronautical weather chart ! - Copyright ORBIFLY December 2007 - Disclaimer

ORBIFLY MET'MAP TEAM :

Programming & Development : Alexandra Zaïnal
Original concept : Baudouin d'Aumeries
Technical & hardware support : Manuel Goepfert
Assistance : Marc-Olivier Méhu




SOURCES & CREDITS :

   NOAA       Earth
Advisory